Briefing drone pour Brantome

Rechercher une autre localisation

Conditions de vol :


Nous sommes le : Lundi 02 août 2021
Il est 15:18 UTC (17:18 LT)

Lever de soleil : 04:16 UTC (06:16 LT)
Coucher de soleil : 19:50 UTC (21:50 LT)

Météo

L'essentiel des conditions de vol

VIGILANCE MÉTÉO FRANCE - Dordogne (24)
Pas de vigilances particulieres
METAR de LFBX
LFBX 021500Z AUTO 26004KT 220V320 CAVOK 23/12 Q1017

Date d'émission: 02/08/2021
Heure d'émission: 15:00 UTC
Vent: 260° (variable du 220° au 320°) pour 4 KT (7 km/h)
Visibilité horizontale: > 10 km
Plafond : Plafond et visibilité OK (CAVOK)
Température: 23 °C
Point de rosée: 12 °C
Humidité: 50%
Pression (QNH): 1017 hPa
Prévision 24h pour Perigueux (13 km)
Vent : 232° pour 2 KT (8 km/h)
Temperature Maxi: 21 °C
Temperature Min: 21 °C
Humidité : 61%
Condition : Légère pluie



Warning: count(): Parameter must be an array or an object that implements Countable in /homepages/6/d509196549/htdocs/droneoxygene/briefing.php on line 743
WEBCAM POUR BRANTOME

Réglementation

Voler en sécurité

CARTES AERONAUTIQUE 1/500.000
CARTES VAC (LFBX)
SUP AIP




Chargement des AIP...
NOTAM (BRANTOME + Terrain à proximité / FIR )




Chargement des NOTAMS...
CONTACT PREFECTURE 24


Avertissement : Les données mises à disposition sont indicatives. Oxygène Drone ne pourra être tenu responsable de dégâts causés aux biens et aux personnes.